Time;durP1;ratioP1;P1;durP2;ratioP2;P2;SDS_P1;SDS_P2;PMS_P1;PMS_P2;Temp;Humidity;BMP_temperature;BMP_pressure;BME280_temperature;BME280_humidity;BME280_pressure;Samples;Min_cycle;Max_cycle;Signal;HPM_P1;HPM_P2
2023/05/25 00:01:42;;;;;;;;;;;;;;;;;;5132222;27;1975;-55
2023/05/25 00:04:10;;;;;;;;;;;;;;;;;;5113639;27;2417;-60
2023/05/25 00:06:39;;;;;;;;;;;;;;;;;;5132509;27;1508;-62
2023/05/25 00:09:07;;;;;;;;;;;;;;;;;;5132527;27;1794;-62
2023/05/25 00:11:34;;;;;;;;;;;;;;;;;;5131971;27;2115;-61
2023/05/25 00:14:01;;;;;;;;;;;;;;;;;;5132564;27;2141;-57
2023/05/25 00:16:28;;;;;;;;;;;;;;;;;;5132004;27;1576;-61
2023/05/25 00:18:56;;;;;;;;;;;;;;;;;;5132188;28;1720;-62
2023/05/25 00:21:24;;;;;;;;;;;;;;;;;;5132049;28;1903;-61
2023/05/25 00:23:51;;;;;;;;;;;;;;;;;;5132066;28;1450;-58
2023/05/25 00:26:18;;;;;;;;;;;;;;;;;;5132535;27;1554;-57
2023/05/25 00:28:45;;;;;;;;;;;;;;;;;;5136229;27;1458;-58
2023/05/25 00:31:12;;;;;;;;;;;;;;;;;;5136278;27;1689;-58
2023/05/25 00:33:41;;;;;;;;;;;;;;;;;;5136282;27;1642;-53
2023/05/25 00:36:09;;;;;;;;;;;;;;;;;;5117892;27;2025;-55
2023/05/25 00:38:36;;;;;;;;;;;;;;;;;;5133400;27;2201;-62
2023/05/25 00:41:04;;;;;;;;;;;;;;;;;;5115679;28;1669;-58
2023/05/25 00:43:32;;;;;;;;;;;;;;;;;;5096864;28;2525;-59
2023/05/25 00:45:59;;;;;;;;;;;;;;;;;;5097070;28;1780;-60
2023/05/25 00:48:27;;;;;;;;;;;;;;;;;;5115644;28;1859;-59
2023/05/25 00:50:58;;;;;;;;;;;;;;;;;;5115095;28;1485;-61
2023/05/25 00:53:26;;;;;;;;;;;;;;;;;;5115211;28;1223;-60
2023/05/25 00:56:12;;;;;;;;;;;;;;;;;;5115240;28;1653;-62
2023/05/25 00:58:41;;;;;;;;;;;;;;;;;;5115299;28;1573;-62
2023/05/25 01:01:12;;;;;;;;;;;;;;;;;;5096975;28;2010;-62
2023/05/25 01:03:41;;;;;;;;;;;;;;;;;;5115109;28;1906;-52
2023/05/25 01:06:13;;;;;;;;;;;;;;;;;;5115437;28;1592;-58
2023/05/25 01:08:43;;;;;;;;;;;;;;;;;;5114885;28;1610;-60
2023/05/25 01:11:11;;;;;;;;;;;;;;;;;;5096904;28;1603;-60
2023/05/25 01:13:40;;;;;;;;;;;;;;;;;;5114960;28;1133;-58
2023/05/25 01:16:08;;;;;;;;;;;;;;;;;;5115029;28;1521;-57
2023/05/25 01:18:36;;;;;;;;;;;;;;;;;;5096436;28;2272;-62
2023/05/25 01:21:12;;;;;;;;;;;;;;;;;;5114540;28;1205;-63
2023/05/25 01:23:46;;;;;;;;;;;;;;;;;;5114722;28;1910;-62
2023/05/25 01:26:15;;;;;;;;;;;;;;;;;;5115000;28;1716;-60
2023/05/25 01:28:45;;;;;;;;;;;;;;;;;;5096489;28;1619;-58
2023/05/25 01:31:14;;;;;;;;;;;;;;;;;;5114980;28;1928;-58
2023/05/25 01:33:42;;;;;;;;;;;;;;;;;;5096418;28;1496;-55
2023/05/25 01:36:10;;;;;;;;;;;;;;;;;;5096253;28;2031;-53
2023/05/25 01:38:37;;;;;;;;;;;;;;;;;;5094887;28;1820;-56
2023/05/25 01:41:04;;;;;;;;;;;;;;;;;;5096241;28;1902;-55
2023/05/25 01:43:32;;;;;;;;;;;;;;;;;;5114505;28;1986;-57
2023/05/25 01:46:26;;;;;;;;;;;;;;;;;;5114257;28;1877;-59
2023/05/25 01:49:13;;;;;;;;;;;;;;;;;;5110103;28;1339;-58
2023/05/25 01:51:54;;;;;;;;;;;;;;;;;;5114381;28;1719;-61
2023/05/25 01:54:25;;;;;;;;;;;;;;;;;;5095600;28;2145;-59
2023/05/25 01:56:53;;;;;;;;;;;;;;;;;;5095706;28;2112;-60
2023/05/25 01:59:22;;;;;;;;;;;;;;;;;;5095810;28;1242;-58
2023/05/25 02:01:51;;;;;;;;;;;;;;;;;;5095396;28;1979;-60
2023/05/25 02:04:20;;;;;;;;;;;;;;;;;;5114460;28;1700;-63
2023/05/25 02:06:50;;;;;;;;;;;;;;;;;;5114344;28;1762;-61
2023/05/25 02:09:19;;;;;;;;;;;;;;;;;;5095852;28;1828;-63
2023/05/25 02:11:46;;;;;;;;;;;;;;;;;;5114274;28;1700;-57
2023/05/25 02:14:14;;;;;;;;;;;;;;;;;;5096056;28;1581;-55
2023/05/25 02:16:41;;;;;;;;;;;;;;;;;;5114246;28;1801;-55
2023/05/25 02:19:11;;;;;;;;;;;;;;;;;;5113844;28;1749;-55
2023/05/25 02:21:38;;;;;;;;;;;;;;;;;;5113363;28;1832;-58
2023/05/25 02:24:05;;;;;;;;;;;;;;;;;;5113655;28;2037;-63
2023/05/25 02:26:32;;;;;;;;;;;;;;;;;;5095281;28;2044;-62
2023/05/25 02:29:00;;;;;;;;;;;;;;;;;;5095420;28;2181;-63
2023/05/25 02:31:28;;;;;;;;;;;;;;;;;;5095296;28;2039;-63
2023/05/25 02:33:55;;;;;;;;;;;;;;;;;;5113361;28;1752;-53
2023/05/25 02:36:25;;;;;;;;;;;;;;;;;;5095163;28;1454;-54
2023/05/25 02:38:52;;;;;;;;;;;;;;;;;;5113379;28;1913;-53
2023/05/25 02:41:20;;;;;;;;;;;;;;;;;;5113428;28;2263;-50
2023/05/25 02:43:47;;;;;;;;;;;;;;;;;;5105237;28;1909;-63
2023/05/25 02:46:14;;;;;;;;;;;;;;;;;;5074704;28;1697;-55
2023/05/25 02:48:42;;;;;;;;;;;;;;;;;;5092623;28;1598;-63
2023/05/25 02:51:11;;;;;;;;;;;;;;;;;;5092211;28;1559;-59
2023/05/25 02:53:39;;;;;;;;;;;;;;;;;;5098126;28;1634;-61
2023/05/25 02:56:09;;;;;;;;;;;;;;;;;;5094741;28;1833;-63
2023/05/25 02:58:37;;;;;;;;;;;;;;;;;;5094310;27;1440;-63
2023/05/25 03:01:18;;;;;;;;;;;;;;;;;;5114954;27;1923;-63
2023/05/25 03:03:53;;;;;;;;;;;;;;;;;;5114747;27;1921;-52
2023/05/25 03:06:24;;;;;;;;;;;;;;;;;;5114789;27;1295;-56
2023/05/25 03:09:00;;;;;;;;;;;;;;;;;;5133103;27;1508;-53
2023/05/25 03:11:27;;;;;;;;;;;;;;;;;;5133275;27;1536;-62
2023/05/25 03:13:56;;;;;;;;;;;;;;;;;;5114630;27;1659;-53
2023/05/25 03:16:25;;;;;;;;;;;;;;;;;;5114512;27;1719;-54
2023/05/25 03:18:52;;;;;;;;;;;;;;;;;;5132952;27;2111;-61
2023/05/25 03:21:21;;;;;;;;;;;;;;;;;;5133239;27;1874;-53
2023/05/25 03:23:48;;;;;;;;;;;;;;;;;;5114946;27;1918;-53
2023/05/25 03:26:16;;;;;;;;;;;;;;;;;;5103427;28;2032;-52
2023/05/25 03:28:45;;;;;;;;;;;;;;;;;;5094134;28;2162;-59
2023/05/25 03:31:12;;;;;;;;;;;;;;;;;;5112390;28;1527;-54
2023/05/25 03:33:40;;;;;;;;;;;;;;;;;;5112336;28;2125;-53
2023/05/25 03:36:08;;;;;;;;;;;;;;;;;;5112423;28;1782;-54
2023/05/25 03:38:38;;;;;;;;;;;;;;;;;;5112120;28;1592;-59
2023/05/25 03:41:05;;;;;;;;;;;;;;;;;;5093950;28;1678;-55
2023/05/25 03:43:32;;;;;;;;;;;;;;;;;;5111762;28;2279;-60
2023/05/25 03:46:03;;;;;;;;;;;;;;;;;;5093611;28;1883;-61
2023/05/25 03:48:31;;;;;;;;;;;;;;;;;;5093670;28;1759;-55
2023/05/25 03:50:58;;;;;;;;;;;;;;;;;;5111728;28;1750;-54
2023/05/25 03:53:25;;;;;;;;;;;;;;;;;;5093519;28;1958;-52
2023/05/25 03:55:53;;;;;;;;;;;;;;;;;;5093724;28;1660;-54
2023/05/25 03:58:20;;;;;;;;;;;;;;;;;;5111987;28;2072;-51
2023/05/25 04:00:51;;;;;;;;;;;;;;;;;;5111637;28;1916;-54
2023/05/25 04:03:19;;;;;;;;;;;;;;;;;;5093013;28;1963;-53
2023/05/25 04:05:46;;;;;;;;;;;;;;;;;;5092988;28;1865;-54
2023/05/25 04:08:16;;;;;;;;;;;;;;;;;;5111797;28;1631;-66
2023/05/25 04:10:44;;;;;;;;;;;;;;;;;;5093527;28;1715;-54
2023/05/25 04:13:12;;;;;;;;;;;;;;;;;;5111917;28;1472;-53
2023/05/25 04:15:39;;;;;;;;;;;;;;;;;;5093301;28;1933;-56
2023/05/25 04:18:11;;;;;;;;;;;;;;;;;;5093510;28;2082;-53
2023/05/25 04:20:38;;;;;;;;;;;;;;;;;;5093345;28;1678;-55
2023/05/25 04:23:07;;;;;;;;;;;;;;;;;;5093453;28;1914;-53
2023/05/25 04:25:40;;;;;;;;;;;;;;;;;;5093282;28;1994;-55
2023/05/25 04:28:09;;;;;;;;;;;;;;;;;;5093320;28;1704;-63
2023/05/25 04:30:55;;;;;;;;;;;;;;;;;;5093315;28;1601;-59
2023/05/25 04:33:37;;;;;;;;;;;;;;;;;;5092604;28;2282;-54
2023/05/25 04:36:31;;;;;;;;;;;;;;;;;;5110961;28;1893;-64
2023/05/25 04:39:03;;;;;;;;;;;;;;;;;;5092890;28;1620;-56
2023/05/25 04:41:34;;;;;;;;;;;;;;;;;;5092965;28;2150;-54
2023/05/25 04:44:04;;;;;;;;;;;;;;;;;;5092988;28;2247;-66
2023/05/25 04:46:39;;;;;;;;;;;;;;;;;;5092852;28;1518;-62
2023/05/25 04:49:12;;;;;;;;;;;;;;;;;;5092809;28;2089;-53
2023/05/25 04:51:40;;;;;;;;;;;;;;;;;;5092944;28;1513;-55
2023/05/25 04:54:07;;;;;;;;;;;;;;;;;;5093005;28;2202;-49
2023/05/25 04:56:35;;;;;;;;;;;;;;;;;;5111129;28;1798;-49
2023/05/25 04:59:03;;;;;;;;;;;;;;;;;;5089346;28;2294;-63
2023/05/25 05:01:33;;;;;;;;;;;;;;;;;;5072854;28;2445;-52
2023/05/25 05:04:02;;;;;;;;;;;;;;;;;;5072413;28;1969;-65
2023/05/25 05:06:31;;;;;;;;;;;;;;;;;;5072588;28;2041;-50
2023/05/25 05:08:58;;;;;;;;;;;;;;;;;;5072883;28;1954;-59
2023/05/25 05:11:26;;;;;;;;;;;;;;;;;;5072789;28;1938;-57
2023/05/25 05:13:54;;;;;;;;;;;;;;;;;;5075286;28;1460;-57
2023/05/25 05:16:21;;;;;;;;;;;;;;;;;;5076186;28;2431;-53
2023/05/25 05:18:49;;;;;;;;;;;;;;;;;;5076078;28;1537;-66
2023/05/25 05:21:16;;;;;;;;;;;;;;;;;;5094384;28;1716;-51
2023/05/25 05:23:44;;;;;;;;;;;;;;;;;;5075906;28;2113;-55
2023/05/25 05:26:13;;;;;;;;;;;;;;;;;;5076229;28;2426;-64
2023/05/25 05:28:41;;;;;;;;;;;;;;;;;;5076057;28;1760;-52
2023/05/25 05:31:10;;;;;;;;;;;;;;;;;;5075805;28;2208;-64
2023/05/25 05:33:38;;;;;;;;;;;;;;;;;;5075933;28;1431;-61
2023/05/25 05:36:06;;;;;;;;;;;;;;;;;;5075719;28;2100;-63
2023/05/25 05:38:34;;;;;;;;;;;;;;;;;;5075901;28;2283;-65
2023/05/25 05:41:06;;;;;;;;;;;;;;;;;;5076286;28;1735;-65
2023/05/25 05:43:34;;;;;;;;;;;;;;;;;;5075473;28;1977;-64
2023/05/25 05:46:01;;;;;;;;;;;;;;;;;;5094133;28;1782;-51
2023/05/25 05:48:28;;;;;;;;;;;;;;;;;;5094179;28;2147;-65
2023/05/25 05:50:55;;;;;;;;;;;;;;;;;;5093752;28;1992;-64
2023/05/25 05:53:23;;;;;;;;;;;;;;;;;;5090633;28;1798;-51
2023/05/25 05:55:53;;;;;;;;;;;;;;;;;;5095972;28;1855;-50
2023/05/25 05:58:22;;;;;;;;;;;;;;;;;;5110370;27;2348;-48
2023/05/25 06:00:50;;;;;;;;;;;;;;;;;;5116143;27;1920;-51
2023/05/25 06:03:17;;;;;;;;;;;;;;;;;;5134583;27;1972;-52
2023/05/25 06:05:44;;;;;;;;;;;;;;;;;;5116004;27;1720;-51
2023/05/25 06:08:12;;;;;;;;;;;;;;;;;;5116149;27;2037;-54
2023/05/25 06:10:41;;;;;;;;;;;;;;;;;;5115684;27;2010;-54
2023/05/25 06:13:08;;;;;;;;;;;;;;;;;;5134189;27;1941;-63
2023/05/25 06:15:35;;;;;;;;;;;;;;;;;;5134191;27;1997;-65
2023/05/25 06:18:08;;;;;;;;;;;;;;;;;;5115639;27;1852;-59
2023/05/25 06:20:35;;;;;;;;;;;;;;;;;;5103056;28;2135;-65
2023/05/25 06:23:03;;;;;;;;;;;;;;;;;;5095012;28;1974;-52
2023/05/25 06:25:33;;;;;;;;;;;;;;;;;;5094396;28;2131;-53
2023/05/25 06:28:01;;;;;;;;;;;;;;;;;;5113864;28;2216;-51
2023/05/25 06:30:28;;;;;;;;;;;;;;;;;;5113651;28;1475;-54
2023/05/25 06:32:56;;;;;;;;;;;;;;;;;;5083300;28;1570;-65
2023/05/25 06:35:25;;;;;;;;;;;;;;;;;;5074735;28;1706;-65
2023/05/25 06:37:54;;;;;;;;;;;;;;;;;;5074356;28;1850;-64
2023/05/25 06:40:21;;;;;;;;;;;;;;;;;;5074499;28;1733;-51
2023/05/25 06:42:49;;;;;;;;;;;;;;;;;;5074505;28;1664;-58
2023/05/25 06:45:36;;;;;;;;;;;;;;;;;;5061093;28;1601;-62
2023/05/25 06:48:04;;;;;;;;;;;;;;;;;;5092705;28;2036;-52
2023/05/25 06:50:31;;;;;;;;;;;;;;;;;;5092468;28;1561;-57
2023/05/25 06:52:58;;;;;;;;;;;;;;;;;;5092533;28;1726;-55
2023/05/25 06:55:26;;;;;;;;;;;;;;;;;;5092688;28;1265;-53
2023/05/25 06:57:53;;;;;;;;;;;;;;;;;;5113344;27;1270;-57
2023/05/25 07:00:20;;;;;;;;;;;;;;;;;;5133403;27;1581;-51
2023/05/25 07:02:47;;;;;;;;;;;;;;;;;;5133217;27;1840;-58
2023/05/25 07:05:14;;;;;;;;;;;;;;;;;;5133304;27;1909;-63
2023/05/25 07:07:41;;;;;;;;;;;;;;;;;;5133451;27;1221;-50
2023/05/25 07:10:09;;;;;;;;;;;;;;;;;;5133228;27;1893;-59
2023/05/25 07:12:36;;;;;;;;;;;;;;;;;;5133101;27;2109;-52
2023/05/25 07:15:04;;;;;;;;;;;;;;;;;;5133392;27;1362;-54
2023/05/25 07:17:31;;;;;;;;;;;;;;;;;;5132943;27;1572;-55
2023/05/25 07:19:58;;;;;;;;;;;;;;;;;;5133073;27;2054;-54
2023/05/25 07:22:25;;;;;;;;;;;;;;;;;;5132995;27;1812;-63
2023/05/25 07:24:53;;;;;;;;;;;;;;;;;;5132886;27;1980;-50
2023/05/25 07:27:20;;;;;;;;;;;;;;;;;;5132836;27;1999;-57
2023/05/25 07:29:47;;;;;;;;;;;;;;;;;;5132921;27;1746;-52
2023/05/25 07:32:16;;;;;;;;;;;;;;;;;;5132399;27;1136;-62
2023/05/25 07:34:44;;;;;;;;;;;;;;;;;;5132440;27;1497;-53
2023/05/25 07:37:11;;;;;;;;;;;;;;;;;;5132700;27;1533;-58
2023/05/25 07:39:39;;;;;;;;;;;;;;;;;;5114142;27;1402;-52
2023/05/25 07:42:06;;;;;;;;;;;;;;;;;;5132929;27;2059;-50
2023/05/25 07:44:34;;;;;;;;;;;;;;;;;;5132746;27;1910;-55
2023/05/25 07:47:01;;;;;;;;;;;;;;;;;;5132654;27;1734;-53
2023/05/25 07:49:29;;;;;;;;;;;;;;;;;;5132335;27;1778;-51
2023/05/25 07:51:56;;;;;;;;;;;;;;;;;;5132712;27;1726;-53
2023/05/25 07:54:24;;;;;;;;;;;;;;;;;;5120619;27;2266;-53
2023/05/25 07:56:51;;;;;;;;;;;;;;;;;;5113522;27;1433;-59
2023/05/25 07:59:18;;;;;;;;;;;;;;;;;;5132276;27;1155;-64
2023/05/25 08:01:45;;;;;;;;;;;;;;;;;;5132239;27;2623;-65
2023/05/25 08:04:12;;;;;;;;;;;;;;;;;;5132195;27;1897;-51
2023/05/25 08:06:40;;;;;;;;;;;;;;;;;;5132384;27;1624;-50
2023/05/25 08:09:08;;;;;;;;;;;;;;;;;;5132586;27;2010;-48
2023/05/25 08:11:35;;;;;;;;;;;;;;;;;;5132294;27;1479;-53
2023/05/25 08:14:02;;;;;;;;;;;;;;;;;;5132129;27;1954;-51
2023/05/25 08:16:29;;;;;;;;;;;;;;;;;;5132080;27;1521;-50
2023/05/25 08:18:58;;;;;;;;;;;;;;;;;;5132206;27;1559;-60
2023/05/25 08:21:25;;;;;;;;;;;;;;;;;;5131928;28;1656;-54
2023/05/25 08:23:53;;;;;;;;;;;;;;;;;;5131985;28;1905;-54
2023/05/25 08:26:20;;;;;;;;;;;;;;;;;;5132059;28;1343;-63
2023/05/25 08:28:51;;;;;;;;;;;;;;;;;;5131679;28;2008;-61
2023/05/25 08:31:18;;;;;;;;;;;;;;;;;;5132033;28;2194;-55
2023/05/25 08:33:45;;;;;;;;;;;;;;;;;;5132349;28;1674;-61
2023/05/25 08:36:12;;;;;;;;;;;;;;;;;;5132142;28;1728;-52
2023/05/25 08:38:40;;;;;;;;;;;;;;;;;;5131909;28;1943;-48
2023/05/25 08:41:07;;;;;;;;;;;;;;;;;;5132207;28;1903;-62
2023/05/25 08:43:35;;;;;;;;;;;;;;;;;;5131897;28;1788;-62
2023/05/25 08:46:04;;;;;;;;;;;;;;;;;;5131759;28;1824;-60
2023/05/25 08:48:35;;;;;;;;;;;;;;;;;;5134009;27;1268;-59
2023/05/25 08:51:09;;;;;;;;;;;;;;;;;;5135956;27;1064;-55
2023/05/25 08:53:38;;;;;;;;;;;;;;;;;;5131095;27;1805;-49
2023/05/25 08:56:25;;;;;;;;;;;;;;;;;;5115598;28;1988;-60
2023/05/25 08:59:04;;;;;;;;;;;;;;;;;;5134044;27;1760;-46
2023/05/25 09:01:40;;;;;;;;;;;;;;;;;;5135684;27;1736;-53
2023/05/25 09:04:07;;;;;;;;;;;;;;;;;;5135732;27;1886;-58
2023/05/25 09:06:35;;;;;;;;;;;;;;;;;;5135746;27;1646;-58
2023/05/25 09:09:03;;;;;;;;;;;;;;;;;;5135733;27;1673;-55
2023/05/25 09:11:32;;;;;;;;;;;;;;;;;;5135671;27;1732;-49
2023/05/25 09:14:06;;;;;;;;;;;;;;;;;;5135374;27;1958;-52
2023/05/25 09:16:35;;;;;;;;;;;;;;;;;;5135638;27;1984;-51
2023/05/25 09:19:03;;;;;;;;;;;;;;;;;;5135565;27;2157;-47
2023/05/25 09:21:35;;;;;;;;;;;;;;;;;;5135489;27;2099;-51
2023/05/25 09:24:02;;;;;;;;;;;;;;;;;;5135089;27;2058;-49
2023/05/25 09:26:30;;;;;;;;;;;;;;;;;;5135346;27;2088;-52
2023/05/25 09:28:57;;;;;;;;;;;;;;;;;;5135240;27;1823;-52
2023/05/25 09:31:24;;;;;;;;;;;;;;;;;;5135183;27;1380;-51
2023/05/25 09:33:58;;;;;;;;;;;;;;;;;;5135021;27;1664;-50
2023/05/25 09:36:26;;;;;;;;;;;;;;;;;;5135012;27;1339;-52
2023/05/25 09:38:54;;;;;;;;;;;;;;;;;;5135002;27;1415;-48
2023/05/25 09:41:26;;;;;;;;;;;;;;;;;;5135144;27;1823;-51
2023/05/25 09:43:54;;;;;;;;;;;;;;;;;;5134748;27;1953;-49
2023/05/25 09:46:37;;;;;;;;;;;;;;;;;;5134983;27;1527;-53
2023/05/25 09:49:07;;;;;;;;;;;;;;;;;;5134544;27;1841;-52
2023/05/25 09:51:35;;;;;;;;;;;;;;;;;;5134697;27;2029;-49
2023/05/25 09:54:03;;;;;;;;;;;;;;;;;;5126013;27;2039;-52
2023/05/25 09:56:31;;;;;;;;;;;;;;;;;;5114265;28;1941;-51
2023/05/25 09:59:00;;;;;;;;;;;;;;;;;;5132889;27;2373;-54
2023/05/25 10:01:27;;;;;;;;;;;;;;;;;;5134476;27;2154;-50
2023/05/25 10:04:01;;;;;;;;;;;;;;;;;;5134526;27;1678;-53
2023/05/25 10:06:32;;;;;;;;;;;;;;;;;;5134426;27;1997;-51
2023/05/25 10:08:59;;;;;;;;;;;;;;;;;;5134543;27;1854;-52
2023/05/25 10:11:27;;;;;;;;;;;;;;;;;;5134574;27;1619;-52
2023/05/25 10:13:54;;;;;;;;;;;;;;;;;;5134448;27;2345;-49
2023/05/25 10:16:26;;;;;;;;;;;;;;;;;;5134320;27;2109;-52
2023/05/25 10:19:00;;;;;;;;;;;;;;;;;;5134161;27;1853;-55
2023/05/25 10:21:29;;;;;;;;;;;;;;;;;;5134407;27;1831;-50
2023/05/25 10:24:02;;;;;;;;;;;;;;;;;;5134049;27;1697;-60
2023/05/25 10:26:32;;;;;;;;;;;;;;;;;;5134287;27;1400;-51
2023/05/25 10:29:00;;;;;;;;;;;;;;;;;;5134244;27;1555;-48
2023/05/25 10:31:28;;;;;;;;;;;;;;;;;;5134377;27;1998;-60
2023/05/25 10:33:56;;;;;;;;;;;;;;;;;;5134106;27;2054;-49
2023/05/25 10:36:24;;;;;;;;;;;;;;;;;;5133951;27;1867;-47
2023/05/25 10:38:51;;;;;;;;;;;;;;;;;;5132379;27;2038;-47
2023/05/25 10:41:19;;;;;;;;;;;;;;;;;;5115569;27;1820;-50
2023/05/25 10:43:49;;;;;;;;;;;;;;;;;;5133972;27;2041;-53
2023/05/25 10:46:17;;;;;;;;;;;;;;;;;;5133773;27;1963;-49
2023/05/25 10:48:45;;;;;;;;;;;;;;;;;;5134147;27;2010;-54
2023/05/25 10:51:13;;;;;;;;;;;;;;;;;;5133542;27;1837;-59
2023/05/25 10:53:57;;;;;;;;;;;;;;;;;;5128054;27;2107;-58
2023/05/25 10:56:26;;;;;;;;;;;;;;;;;;5113020;28;2078;-60
2023/05/25 10:58:55;;;;;;;;;;;;;;;;;;5132031;27;1898;-53
2023/05/25 11:01:24;;;;;;;;;;;;;;;;;;5133569;27;2160;-58
2023/05/25 11:03:55;;;;;;;;;;;;;;;;;;5133438;27;2019;-58
2023/05/25 11:06:45;;;;;;;;;;;;;;;;;;5133341;27;1973;-58
2023/05/25 11:09:25;;;;;;;;;;;;;;;;;;5132958;27;1960;-59
2023/05/25 11:11:54;;;;;;;;;;;;;;;;;;5132897;27;1706;-60
2023/05/25 11:14:29;;;;;;;;;;;;;;;;;;5114893;27;1485;-54
2023/05/25 11:17:10;;;;;;;;;;;;;;;;;;5133085;27;1411;-56
2023/05/25 11:19:53;;;;;;;;;;;;;;;;;;5133198;27;1983;-56
2023/05/25 11:22:22;;;;;;;;;;;;;;;;;;5133345;27;2007;-48
2023/05/25 11:24:52;;;;;;;;;;;;;;;;;;5133228;27;2104;-49
2023/05/25 11:27:22;;;;;;;;;;;;;;;;;;5133219;27;2043;-49
2023/05/25 11:29:52;;;;;;;;;;;;;;;;;;5133200;27;1457;-53
2023/05/25 11:32:24;;;;;;;;;;;;;;;;;;5133077;27;1956;-49
2023/05/25 11:34:56;;;;;;;;;;;;;;;;;;5132816;27;1727;-59
2023/05/25 11:37:27;;;;;;;;;;;;;;;;;;5132369;27;1735;-54
2023/05/25 11:39:59;;;;;;;;;;;;;;;;;;5132547;27;2149;-60
2023/05/25 11:42:29;;;;;;;;;;;;;;;;;;5132612;27;1939;-47
2023/05/25 11:45:02;;;;;;;;;;;;;;;;;;5132595;27;1902;-61
2023/05/25 11:47:32;;;;;;;;;;;;;;;;;;5132407;27;2431;-52
2023/05/25 11:50:06;;;;;;;;;;;;;;;;;;5132211;27;1631;-49
2023/05/25 11:52:36;;;;;;;;;;;;;;;;;;5132267;27;1723;-49
2023/05/25 11:55:09;;;;;;;;;;;;;;;;;;5114859;27;1592;-47
2023/05/25 11:57:39;;;;;;;;;;;;;;;;;;5120094;27;1319;-48
2023/05/25 12:00:11;;;;;;;;;;;;;;;;;;5132241;27;1658;-51
2023/05/25 12:02:42;;;;;;;;;;;;;;;;;;5113722;27;2070;-60
2023/05/25 12:05:10;;;;;;;;;;;;;;;;;;5132330;27;1986;-60
2023/05/25 12:07:45;;;;;;;;;;;;;;;;;;5132439;27;1809;-58
2023/05/25 12:10:16;;;;;;;;;;;;;;;;;;5132253;27;2238;-58
2023/05/25 12:12:43;;;;;;;;;;;;;;;;;;5132096;27;1900;-59
2023/05/25 12:15:12;;;;;;;;;;;;;;;;;;5132695;27;1747;-50
2023/05/25 12:17:40;;;;;;;;;;;;;;;;;;5132064;27;1883;-47
2023/05/25 12:20:09;;;;;;;;;;;;;;;;;;5132510;27;2098;-47
2023/05/25 12:22:40;;;;;;;;;;;;;;;;;;5131296;27;1603;-54
2023/05/25 12:25:09;;;;;;;;;;;;;;;;;;5132210;28;2132;-61
2023/05/25 12:27:36;;;;;;;;;;;;;;;;;;5132156;28;2029;-53
2023/05/25 12:30:04;;;;;;;;;;;;;;;;;;5132108;28;1645;-48
2023/05/25 12:32:31;;;;;;;;;;;;;;;;;;5131879;28;1193;-49
2023/05/25 12:35:02;;;;;;;;;;;;;;;;;;5131886;28;1807;-48
2023/05/25 12:37:29;;;;;;;;;;;;;;;;;;5132071;28;2040;-54
2023/05/25 12:39:57;;;;;;;;;;;;;;;;;;5131813;28;1872;-50
2023/05/25 12:42:26;;;;;;;;;;;;;;;;;;5131738;28;1855;-52
2023/05/25 12:44:54;;;;;;;;;;;;;;;;;;5131877;28;1983;-50
2023/05/25 12:47:22;;;;;;;;;;;;;;;;;;5131673;28;1787;-48
2023/05/25 12:49:50;;;;;;;;;;;;;;;;;;5131835;28;1870;-51
2023/05/25 12:52:50;;;;;;;;;;;;;;;;;;5131807;28;1563;-55
2023/05/25 12:55:30;;;;;;;;;;;;;;;;;;5047925;28;1622;-54
2023/05/25 12:57:59;;;;;;;;;;;;;;;;;;5113038;28;1462;-51
2023/05/25 13:00:27;;;;;;;;;;;;;;;;;;5131761;28;1961;-53
2023/05/25 13:02:54;;;;;;;;;;;;;;;;;;5131957;28;1691;-51
2023/05/25 13:05:24;;;;;;;;;;;;;;;;;;5113476;28;1909;-53
2023/05/25 13:07:52;;;;;;;;;;;;;;;;;;5110995;28;1884;-47
2023/05/25 13:10:20;;;;;;;;;;;;;;;;;;5111160;28;2270;-48
2023/05/25 13:12:48;;;;;;;;;;;;;;;;;;5111474;28;1863;-50
2023/05/25 13:15:25;;;;;;;;;;;;;;;;;;5110989;28;1977;-49
2023/05/25 13:17:53;;;;;;;;;;;;;;;;;;5110754;28;2067;-48
2023/05/25 13:20:22;;;;;;;;;;;;;;;;;;5111033;28;1956;-50
2023/05/25 13:22:50;;;;;;;;;;;;;;;;;;5111160;28;2083;-55
2023/05/25 13:25:18;;;;;;;;;;;;;;;;;;5111388;28;2190;-55
2023/05/25 13:27:46;;;;;;;;;;;;;;;;;;5111082;28;1662;-56
2023/05/25 13:30:14;;;;;;;;;;;;;;;;;;5111236;28;2209;-49
2023/05/25 13:32:44;;;;;;;;;;;;;;;;;;5110698;28;2119;-52
2023/05/25 13:35:18;;;;;;;;;;;;;;;;;;5113725;28;1572;-50
2023/05/25 13:37:45;;;;;;;;;;;;;;;;;;5114550;28;2156;-49
2023/05/25 13:40:12;;;;;;;;;;;;;;;;;;5114589;28;2014;-52
2023/05/25 13:42:39;;;;;;;;;;;;;;;;;;5114371;28;1830;-48
2023/05/25 13:45:07;;;;;;;;;;;;;;;;;;5114179;28;1973;-54
2023/05/25 13:47:34;;;;;;;;;;;;;;;;;;5114102;28;1967;-52
2023/05/25 13:50:01;;;;;;;;;;;;;;;;;;5114119;28;1492;-49
2023/05/25 13:52:28;;;;;;;;;;;;;;;;;;5114418;28;1567;-54
2023/05/25 13:54:55;;;;;;;;;;;;;;;;;;5114014;28;1695;-53
2023/05/25 13:57:25;;;;;;;;;;;;;;;;;;5120240;27;2167;-57
2023/05/25 13:59:53;;;;;;;;;;;;;;;;;;5134556;27;1963;-47
2023/05/25 14:02:20;;;;;;;;;;;;;;;;;;5134596;27;1823;-55
2023/05/25 14:04:47;;;;;;;;;;;;;;;;;;5134114;27;2138;-54
2023/05/25 14:07:14;;;;;;;;;;;;;;;;;;5134631;27;2036;-51
2023/05/25 14:09:41;;;;;;;;;;;;;;;;;;5134378;27;1934;-55
2023/05/25 14:12:08;;;;;;;;;;;;;;;;;;5134020;27;1929;-52
2023/05/25 14:14:37;;;;;;;;;;;;;;;;;;5134231;27;1964;-51
2023/05/25 14:17:04;;;;;;;;;;;;;;;;;;5134476;27;1925;-58
2023/05/25 14:19:31;;;;;;;;;;;;;;;;;;5134543;27;1994;-55
2023/05/25 14:21:58;;;;;;;;;;;;;;;;;;5134653;27;1893;-50
2023/05/25 14:24:38;;;;;;;;;;;;;;;;;;5134196;27;1916;-59
2023/05/25 14:27:08;;;;;;;;;;;;;;;;;;5134178;27;1913;-53
2023/05/25 14:29:35;;;;;;;;;;;;;;;;;;5134429;27;1671;-57
2023/05/25 14:32:03;;;;;;;;;;;;;;;;;;5134734;27;2105;-48
2023/05/25 14:34:30;;;;;;;;;;;;;;;;;;5134325;27;1692;-52
2023/05/25 14:36:57;;;;;;;;;;;;;;;;;;5133865;27;1842;-51
2023/05/25 14:39:25;;;;;;;;;;;;;;;;;;5133972;27;2270;-55
2023/05/25 14:41:52;;;;;;;;;;;;;;;;;;5133885;27;1875;-50
2023/05/25 14:44:19;;;;;;;;;;;;;;;;;;5133892;27;1831;-55
2023/05/25 14:46:46;;;;;;;;;;;;;;;;;;5133122;27;2305;-52
2023/05/25 14:49:15;;;;;;;;;;;;;;;;;;5133392;27;1675;-53
2023/05/25 14:51:43;;;;;;;;;;;;;;;;;;5133566;27;2245;-53
2023/05/25 14:54:12;;;;;;;;;;;;;;;;;;5123707;27;1991;-61
2023/05/25 14:56:39;;;;;;;;;;;;;;;;;;5113370;28;1371;-52
2023/05/25 14:59:06;;;;;;;;;;;;;;;;;;5133901;27;1468;-50
2023/05/25 15:01:35;;;;;;;;;;;;;;;;;;5133478;27;1822;-51
2023/05/25 15:04:02;;;;;;;;;;;;;;;;;;5133919;27;2045;-50
2023/05/25 15:06:33;;;;;;;;;;;;;;;;;;5133583;27;1973;-53
2023/05/25 15:09:00;;;;;;;;;;;;;;;;;;5133902;27;1665;-58
2023/05/25 15:11:27;;;;;;;;;;;;;;;;;;5133335;27;1744;-53
2023/05/25 15:13:56;;;;;;;;;;;;;;;;;;5133428;27;1678;-52
2023/05/25 15:16:24;;;;;;;;;;;;;;;;;;5133400;27;2074;-55
2023/05/25 15:18:51;;;;;;;;;;;;;;;;;;5133107;27;1288;-51
2023/05/25 15:21:18;;;;;;;;;;;;;;;;;;5132833;27;2130;-55
2023/05/25 15:23:45;;;;;;;;;;;;;;;;;;5132836;27;2150;-57
2023/05/25 15:26:13;;;;;;;;;;;;;;;;;;5129101;27;10368;-48
2023/05/25 15:28:40;;;;;;;;;;;;;;;;;;5112473;28;1588;-52
2023/05/25 15:31:07;;;;;;;;;;;;;;;;;;5112469;28;1418;-53
2023/05/25 15:33:38;;;;;;;;;;;;;;;;;;5112545;28;2015;-47
2023/05/25 15:36:19;;;;;;;;;;;;;;;;;;5112371;28;2016;-52
2023/05/25 15:38:47;;;;;;;;;;;;;;;;;;5111977;28;1394;-49
2023/05/25 15:41:15;;;;;;;;;;;;;;;;;;5112071;28;1801;-57
2023/05/25 15:43:51;;;;;;;;;;;;;;;;;;5111817;28;1425;-50
2023/05/25 15:46:18;;;;;;;;;;;;;;;;;;5111901;28;1898;-53
2023/05/25 15:48:45;;;;;;;;;;;;;;;;;;5111718;28;1895;-58
2023/05/25 15:51:12;;;;;;;;;;;;;;;;;;5111750;28;1918;-53
2023/05/25 15:53:40;;;;;;;;;;;;;;;;;;5105034;28;1597;-51
2023/05/25 15:56:07;;;;;;;;;;;;;;;;;;5089535;28;1746;-61
2023/05/25 15:58:34;;;;;;;;;;;;;;;;;;5104776;28;1714;-60
2023/05/25 16:01:01;;;;;;;;;;;;;;;;;;5109723;28;2170;-55
2023/05/25 16:03:28;;;;;;;;;;;;;;;;;;5109756;28;1650;-53
2023/05/25 16:05:56;;;;;;;;;;;;;;;;;;5109686;28;1926;-50
2023/05/25 16:08:23;;;;;;;;;;;;;;;;;;5110377;28;1872;-52
2023/05/25 16:10:50;;;;;;;;;;;;;;;;;;5111510;28;1863;-55
2023/05/25 16:13:17;;;;;;;;;;;;;;;;;;5111810;28;2017;-60
2023/05/25 16:15:45;;;;;;;;;;;;;;;;;;5111314;28;2074;-60
2023/05/25 16:18:12;;;;;;;;;;;;;;;;;;5111541;28;1843;-51
2023/05/25 16:20:39;;;;;;;;;;;;;;;;;;5111720;28;1885;-52
2023/05/25 16:23:06;;;;;;;;;;;;;;;;;;5111881;28;1803;-55
2023/05/25 16:25:34;;;;;;;;;;;;;;;;;;5093127;28;1777;-50
2023/05/25 16:28:01;;;;;;;;;;;;;;;;;;5111313;28;1967;-50
2023/05/25 16:30:28;;;;;;;;;;;;;;;;;;5111591;28;2006;-53
2023/05/25 16:32:55;;;;;;;;;;;;;;;;;;5111387;28;1787;-49
2023/05/25 16:35:23;;;;;;;;;;;;;;;;;;5111693;28;2099;-51
2023/05/25 16:37:50;;;;;;;;;;;;;;;;;;5111320;28;1418;-50
2023/05/25 16:40:17;;;;;;;;;;;;;;;;;;5111585;28;1820;-53
2023/05/25 16:42:44;;;;;;;;;;;;;;;;;;5111403;28;2029;-52
2023/05/25 16:45:11;;;;;;;;;;;;;;;;;;5111409;28;1651;-56
2023/05/25 16:47:39;;;;;;;;;;;;;;;;;;5111487;28;2273;-54
2023/05/25 16:50:06;;;;;;;;;;;;;;;;;;5111392;28;1381;-48
2023/05/25 16:52:34;;;;;;;;;;;;;;;;;;5111100;28;1685;-53
2023/05/25 16:55:01;;;;;;;;;;;;;;;;;;5094435;28;1455;-52
2023/05/25 16:57:28;;;;;;;;;;;;;;;;;;5097702;28;1681;-54
2023/05/25 16:59:55;;;;;;;;;;;;;;;;;;5111170;28;2229;-48
2023/05/25 17:02:22;;;;;;;;;;;;;;;;;;5111300;28;1960;-56
2023/05/25 17:04:50;;;;;;;;;;;;;;;;;;5111216;28;1835;-59
2023/05/25 17:07:17;;;;;;;;;;;;;;;;;;5111014;28;2316;-59
2023/05/25 17:09:44;;;;;;;;;;;;;;;;;;5113378;28;1906;-55
2023/05/25 17:12:14;;;;;;;;;;;;;;;;;;5114867;28;1920;-55
2023/05/25 17:14:41;;;;;;;;;;;;;;;;;;5115213;28;1942;-54
2023/05/25 17:17:08;;;;;;;;;;;;;;;;;;5115037;28;1467;-62